This is the latest recevied weather packets stored in our database for station/object SP6PGH-13. If no packets are shown the sender has not sent any weather packets the latest 10 day(s).
| Time | Temp. | Humidity | Pressure | Rain* | Wind** | Luminosity | Snow |
|---|---|---|---|---|---|---|---|
| 1788199484 | 20° C | 74% | 999.9 hPa | - | - | - | - |
| 1788198584 | 20° C | 73% | 999.9 hPa | - | - | 1 W/m² | - |
| 1788197683 | 20.56° C | 71% | 999.8 hPa | - | - | 4 W/m² | - |
| 1788196782 | 21.11° C | 70% | 999.7 hPa | - | - | 10 W/m² | - |
| 1788195881 | 21.67° C | 69% | 999.6 hPa | - | - | 18 W/m² | - |
| 1788194980 | 22.22° C | 67% | 999.6 hPa | - | - | 27 W/m² | - |
| 1788194079 | 22.78° C | 65% | 999.6 hPa | - | - | 37 W/m² | - |
| 1788193178 | 23.33° C | 63% | 999.6 hPa | - | - | 42 W/m² | - |
| 1788192277 | 24.44° C | 60% | 999.5 hPa | - | - | 70 W/m² | - |
| 1788191375 | 23.89° C | 62% | 999.6 hPa | - | - | 119 W/m² | - |
| 1788190473 | 23.89° C | 64% | 999.7 hPa | - | - | 135 W/m² | - |
| 1788189572 | 23.33° C | 65% | 999.7 hPa | - | - | 161 W/m² | - |
| 1788188671 | 25° C | 64% | 999.6 hPa | - | - | 243 W/m² | - |
| 1788187771 | 25° C | 65% | 999.8 hPa | - | - | 327 W/m² | - |
| 1788186870 | 22.22° C | 74% | 999.9 hPa | - | - | 99 W/m² | - |
| 1788185969 | 22.22° C | 75% | 1000 hPa | - | - | 137 W/m² | - |
| 1788185067 | 23.33° C | 73% | 1000 hPa | - | - | 130 W/m² | - |
| 1788184167 | 22.22° C | 79% | 1000 hPa | - | - | 120 W/m² | - |
| 1788183266 | 21.67° C | 81% | 1000.1 hPa | - | - | 179 W/m² | - |
| 1788182365 | 21.67° C | 80% | 1000.2 hPa | - | - | 306 W/m² | - |
| 1788181464 | 21.11° C | 85% | 1000.2 hPa | - | - | 568 W/m² | - |
| 1788180563 | 21.11° C | 85% | 1000.2 hPa | - | - | 370 W/m² | - |
| 1788179662 | 20° C | 88% | 1000.2 hPa | - | - | 296 W/m² | - |
| 1788178761 | 20° C | 90% | 1000.1 hPa | - | - | 759 W/m² | - |
| 1788177860 | 18.89° C | 91% | 1000.3 hPa | - | - | 390 W/m² | - |
* Rain since midnight (hover to see other rain measurements)
** Current wind speed in m/s (hover to see current wind gust speed)